createdAt,value
2022-08-12T00:03:59.954Z,20.30
2022-08-12T00:09:25.831Z,20.30
2022-08-12T00:14:46.700Z,20.20
2022-08-12T00:20:07.409Z,20.10
2022-08-12T00:26:05.701Z,20.10
2022-08-12T00:31:11.074Z,19.90
2022-08-12T00:36:36.153Z,19.90
2022-08-12T00:41:57.783Z,19.80
2022-08-12T00:47:01.680Z,19.70
2022-08-12T00:52:11.784Z,19.60
2022-08-12T00:57:17.285Z,19.60
2022-08-12T01:02:26.696Z,19.50
2022-08-12T01:07:47.938Z,19.40
2022-08-12T01:12:50.873Z,19.40
2022-08-12T01:17:52.900Z,19.30
2022-08-12T01:23:15.304Z,19.20
2022-08-12T01:28:20.735Z,19.20
2022-08-12T01:33:25.394Z,19.20
2022-08-12T01:38:32.888Z,19.10
2022-08-12T01:43:35.084Z,19.00
2022-08-12T01:49:06.299Z,18.90
2022-08-12T01:54:14.103Z,18.80
2022-08-12T01:59:47.257Z,18.80
2022-08-12T02:05:22.190Z,18.70
2022-08-12T02:11:18.069Z,18.60
2022-08-12T02:16:32.003Z,18.50
2022-08-12T02:21:47.580Z,18.40
2022-08-12T02:26:50.343Z,18.40
2022-08-12T02:31:53.758Z,18.20
2022-08-12T02:36:57.524Z,18.30
2022-08-12T02:42:06.927Z,18.20
2022-08-12T02:47:18.243Z,18.20
2022-08-12T02:52:32.769Z,18.10
2022-08-12T02:57:34.791Z,18.00
2022-08-12T03:02:40.135Z,17.90
2022-08-12T03:07:59.162Z,17.90
2022-08-12T03:13:04.065Z,17.80
2022-08-12T03:18:25.570Z,17.70
2022-08-12T03:23:31.361Z,17.60
2022-08-12T03:28:51.423Z,17.50
2022-08-12T03:34:02.003Z,17.50
2022-08-12T03:39:35.463Z,17.50
2022-08-12T03:45:02.911Z,17.40
2022-08-12T03:50:24.279Z,17.40
2022-08-12T03:55:44.911Z,17.20
2022-08-12T04:00:47.957Z,17.20
2022-08-12T04:05:54.393Z,17.20
2022-08-12T04:11:17.193Z,17.20
2022-08-12T04:16:20.734Z,17.10
2022-08-12T04:21:22.502Z,17.10
2022-08-12T04:26:24.225Z,17.00
2022-08-12T04:31:39.932Z,16.90
2022-08-12T04:36:43.924Z,17.00
2022-08-12T04:41:58.166Z,16.90
2022-08-12T04:47:00.724Z,16.90
2022-08-12T04:52:03.360Z,16.80
2022-08-12T04:57:09.567Z,16.80
2022-08-12T05:02:16.910Z,16.80
2022-08-12T05:07:24.058Z,16.80
2022-08-12T05:12:32.857Z,16.80
2022-08-12T05:17:34.899Z,16.80
2022-08-12T05:22:40.549Z,16.80
2022-08-12T05:27:55.494Z,17.00
2022-08-12T05:33:05.899Z,17.10
2022-08-12T05:38:27.238Z,17.30
2022-08-12T05:43:29.177Z,17.40
2022-08-12T05:48:32.993Z,17.50
2022-08-12T05:53:34.723Z,17.60
2022-08-12T05:58:37.585Z,17.80
2022-08-12T06:03:39.565Z,17.80
2022-08-12T06:08:44.968Z,17.90
2022-08-12T06:13:53.980Z,18.00
2022-08-12T06:18:56.428Z,18.20
2022-08-12T06:23:58.325Z,18.30
2022-08-12T06:29:00.704Z,18.50
2022-08-12T06:35:25.620Z,18.60
2022-08-12T06:39:24.717Z,18.80
2022-08-12T06:44:26.533Z,19.00
2022-08-12T06:49:36.173Z,19.30
2022-08-12T06:54:37.960Z,19.50
2022-08-12T06:59:40.932Z,19.70
2022-08-12T07:04:43.379Z,19.90
2022-08-12T07:10:03.904Z,20.20
2022-08-12T07:15:07.239Z,20.40
2022-08-12T07:20:20.245Z,20.60
2022-08-12T07:25:40.831Z,20.80
2022-08-12T07:30:44.938Z,21.10
2022-08-12T07:35:48.299Z,21.40
2022-08-12T07:40:52.504Z,21.50
2022-08-12T07:45:55.208Z,21.90
2022-08-12T07:50:56.979Z,22.10
2022-08-12T07:55:58.740Z,22.30
2022-08-12T08:01:01.277Z,22.50
2022-08-12T08:06:05.565Z,22.60
2022-08-12T08:11:39.160Z,22.90
2022-08-12T08:16:43.099Z,23.10
2022-08-12T08:21:45.412Z,23.50
2022-08-12T08:26:50.103Z,24.00
2022-08-12T08:32:00.137Z,24.20
2022-08-12T08:37:04.045Z,24.60
2022-08-12T08:42:28.277Z,25.00
2022-08-12T08:47:31.977Z,25.40
2022-08-12T08:52:40.597Z,25.70
2022-08-12T08:57:50.986Z,26.10
2022-08-12T09:02:59.129Z,26.30
2022-08-12T09:08:11.966Z,26.50
2022-08-12T09:18:52.559Z,27.00
2022-08-12T09:24:06.124Z,27.40
2022-08-12T09:29:12.103Z,27.50
2022-08-12T09:34:27.410Z,27.70
2022-08-12T09:40:05.845Z,27.80
2022-08-12T09:45:19.213Z,28.00
2022-08-12T09:50:25.125Z,28.10
2022-08-12T09:56:06.176Z,28.20
2022-08-12T10:00:52.800Z,28.20
2022-08-12T10:06:19.237Z,28.20
2022-08-12T10:12:10.890Z,28.40
2022-08-12T10:16:58.309Z,28.40
2022-08-12T10:22:01.605Z,28.20
2022-08-12T10:27:21.957Z,28.50
2022-08-12T10:32:45.464Z,28.60
2022-08-12T10:38:34.604Z,28.80
2022-08-12T10:43:27.840Z,28.70
2022-08-12T10:48:34.126Z,28.90
2022-08-12T10:53:43.888Z,28.90
2022-08-12T10:58:48.744Z,29.00
2022-08-12T11:04:20.369Z,29.00
2022-08-12T11:09:41.990Z,29.00
2022-08-12T11:14:49.188Z,29.00
2022-08-12T11:19:52.885Z,29.30
2022-08-12T11:24:55.398Z,29.30
2022-08-12T11:30:02.018Z,29.50
2022-08-12T11:35:11.685Z,29.40
2022-08-12T11:40:13.677Z,29.50
2022-08-12T11:45:16.420Z,29.60
2022-08-12T11:50:20.472Z,29.60
2022-08-12T11:55:23.134Z,29.60
2022-08-12T12:05:47.327Z,29.80
2022-08-12T12:10:50.509Z,29.80
2022-08-12T12:15:53.170Z,29.90
2022-08-12T12:20:58.217Z,29.90
2022-08-12T12:26:08.069Z,30.10
2022-08-12T12:31:14.816Z,30.30
2022-08-12T12:36:32.187Z,30.40
2022-08-12T12:42:45.341Z,30.50
2022-08-12T12:46:57.225Z,30.70
2022-08-12T12:52:18.824Z,30.80
2022-08-12T12:57:21.546Z,30.80
2022-08-12T13:02:40.469Z,30.90
2022-08-12T13:07:54.171Z,30.90
2022-08-12T13:12:56.659Z,30.80
2022-08-12T13:18:05.095Z,31.00
2022-08-12T13:23:35.915Z,30.80
2022-08-12T13:28:31.717Z,30.90
2022-08-12T13:34:29.646Z,31.10
2022-08-12T13:38:57.429Z,31.20
2022-08-12T13:44:07.115Z,31.20
2022-08-12T13:49:17.334Z,31.40
2022-08-12T13:54:36.943Z,31.40
2022-08-12T13:59:48.717Z,31.40
2022-08-12T14:04:57.152Z,31.50
2022-08-12T14:10:17.500Z,31.40
2022-08-12T14:15:19.793Z,31.30
2022-08-12T14:20:37.856Z,31.40
2022-08-12T14:25:41.232Z,31.40
2022-08-12T14:30:59.659Z,31.50
2022-08-12T14:36:04.962Z,31.40
2022-08-12T14:41:18.400Z,31.30
2022-08-12T14:46:22.359Z,31.40
2022-08-12T14:52:55.867Z,31.40
2022-08-12T14:57:20.545Z,31.50
2022-08-12T15:02:14.581Z,31.50
2022-08-12T15:07:33.337Z,31.50
2022-08-12T15:12:40.552Z,31.50
2022-08-12T15:17:42.537Z,31.40
2022-08-12T15:22:53.675Z,31.40
2022-08-12T15:28:04.656Z,31.30
2022-08-12T15:33:24.186Z,31.40
2022-08-12T15:38:28.032Z,31.40
2022-08-12T15:43:52.078Z,31.40
2022-08-12T15:48:52.486Z,31.30
2022-08-12T15:54:30.807Z,31.20
2022-08-12T16:00:00.045Z,31.20
2022-08-12T16:04:59.950Z,31.20
2022-08-12T16:10:05.995Z,31.20
2022-08-12T16:15:11.356Z,31.20
2022-08-12T16:20:33.045Z,31.00
2022-08-12T16:26:02.994Z,31.00
2022-08-12T16:30:59.861Z,30.80
2022-08-12T16:36:11.215Z,30.80
2022-08-12T16:41:13.429Z,30.70
2022-08-12T16:46:31.532Z,30.70
2022-08-12T16:51:40.580Z,30.60
2022-08-12T16:56:55.437Z,30.50
2022-08-12T17:02:00.385Z,30.40
2022-08-12T17:07:02.644Z,30.20
2022-08-12T17:12:05.568Z,30.20
2022-08-12T17:17:26.136Z,30.10
2022-08-12T17:22:33.290Z,30.00
2022-08-12T17:27:40.485Z,29.90
2022-08-12T17:32:53.253Z,29.80
2022-08-12T17:38:02.048Z,29.70
2022-08-12T17:43:51.842Z,29.60
2022-08-12T17:48:34.774Z,29.60
2022-08-12T17:54:10.565Z,29.40
2022-08-12T17:59:07.410Z,29.30
2022-08-12T18:04:21.768Z,29.20
2022-08-12T18:09:32.240Z,29.10
2022-08-12T18:14:41.476Z,29.00
2022-08-12T18:20:05.252Z,28.90
2022-08-12T18:26:10.076Z,28.70
2022-08-12T18:30:33.558Z,28.60
2022-08-12T18:35:47.150Z,28.40
2022-08-12T18:41:21.117Z,28.30
2022-08-12T18:46:54.469Z,28.10
2022-08-12T18:52:02.230Z,27.90
2022-08-12T18:57:19.653Z,27.70
2022-08-12T19:02:36.358Z,27.60
2022-08-12T19:08:00.728Z,27.40
2022-08-12T19:13:43.664Z,27.30
2022-08-12T19:18:45.936Z,27.10
2022-08-12T19:24:08.338Z,27.00
2022-08-12T19:29:10.649Z,26.80
2022-08-12T19:34:42.037Z,26.70
2022-08-12T19:40:09.309Z,26.60
2022-08-12T19:45:05.063Z,26.50
2022-08-12T19:50:11.452Z,26.40
2022-08-12T19:55:19.857Z,26.20
2022-08-12T20:00:26.534Z,26.10
2022-08-12T20:06:04.471Z,26.00
2022-08-12T20:10:53.305Z,26.00
2022-08-12T20:15:59.930Z,25.90
2022-08-12T20:21:01.937Z,25.90
2022-08-12T20:26:09.423Z,25.80
2022-08-12T20:31:13.260Z,25.80
2022-08-12T20:36:42.255Z,25.70
2022-08-12T20:41:41.018Z,25.60
2022-08-12T20:46:42.702Z,25.60
2022-08-12T20:51:54.975Z,25.50
2022-08-12T20:56:57.886Z,25.50
2022-08-12T21:02:04.981Z,25.50
2022-08-12T21:07:10.403Z,25.40
2022-08-12T21:12:27.718Z,25.40
2022-08-12T21:17:33.870Z,25.40
2022-08-12T21:22:55.235Z,25.40
2022-08-12T21:27:58.932Z,25.40
2022-08-12T21:33:04.660Z,25.40
2022-08-12T21:38:12.439Z,25.40
2022-08-12T21:43:16.324Z,25.30
2022-08-12T21:48:24.332Z,25.30
2022-08-12T21:54:05.752Z,25.20
2022-08-12T21:58:49.020Z,25.20
2022-08-12T22:04:11.496Z,25.20
2022-08-12T22:09:16.990Z,25.10
2022-08-12T22:14:23.824Z,25.00
2022-08-12T22:19:26.898Z,25.00
2022-08-12T22:24:29.947Z,24.90
2022-08-12T22:29:50.874Z,24.90
2022-08-12T22:35:12.526Z,24.80
2022-08-12T22:40:24.121Z,24.70
2022-08-12T22:45:48.806Z,24.60
2022-08-12T22:51:00.660Z,24.60
2022-08-12T22:56:06.501Z,24.50
2022-08-12T23:01:11.083Z,24.50
2022-08-12T23:06:13.216Z,24.50
2022-08-12T23:11:16.224Z,24.40
2022-08-12T23:16:28.085Z,24.40
2022-08-12T23:21:40.300Z,24.40
2022-08-12T23:27:11.751Z,24.30
2022-08-12T23:32:54.111Z,24.20
2022-08-12T23:37:47.757Z,24.00
2022-08-12T23:42:56.853Z,23.80
2022-08-12T23:48:00.385Z,23.70
2022-08-12T23:53:05.683Z,23.60
2022-08-12T23:58:22.993Z,23.60
